x

Pi-745 Tabs K (42045) Weather Station

11:00am - Thu 14th Dec 2017 All times are CST. -6 hours from GMT.

  • Wind
    9mph, 11mph gusts
  • Sea Temp 73°f
  • Sea Pressure 1015.2mb
  • Pi-745 Tabs K
  • Pi-745 Tabs K

More Historic Weather Station data

Upgrade to MSW Pro to gain access to the past 30 days of data for over 8000 Wavebouys and Weather Stations around the globe.

Join

Comparision Forecast

View Surf forecast
   
Thu 12/14 11:00am 9 11 mph 1015.2mb 73f
9:00am 9 11 mph 1014.7mb 73f
8:00am 7 9 mph 1014.3mb 73f
7:00am 9 9 mph 1013.5mb 73f
5:00am 11 13 mph 1012.6mb 73f
3:00am 13 18 mph 1012.8mb 73f
2:00am 13 16 mph 1013.2mb 73f
12:00am 13 16 mph 1015.2mb 75f
Wed 12/13 11:00pm 13 18 mph 1015.3mb 76f
2:00pm 2 4 mph 1018.6mb 76f
11:00am 2 4 mph 1021.7mb 76f
9:00am 2 2 mph 1023.1mb 76f
8:00am 2 7 mph 1022.6mb 76f
7:00am 4 7 mph 1021.7mb 76f
6:00am 7 11 mph 1021.4mb 76f
5:00am 7 11 mph 1021.4mb 76f
3:00am 9 13 mph 1021.5mb 76f
2:00am 11 13 mph 1022.1mb 76f
1:00am 11 16 mph 1022.9mb 76f
12:00am 13 18 mph 1023.4mb 76f
Tue 12/12 5:00pm 18 22 mph 1022.5mb 76f
2:00pm 13 18 mph 1022.8mb 76f
1:00pm 13 18 mph 1023.6mb 76f
11:00am 16 20 mph 1026mb 76f
10:00am 16 20 mph 1026mb 76f
6:00am 11 18 mph 1023.6mb 76f
5:00am 11 16 mph 1023.5mb 76f
12:00am 7 11 mph 1023.8mb 76f
Mon 12/11 11:00pm 4 7 mph 1023.9mb 76f
5:00pm 11 16 mph 1023.8mb 76f
4:00pm 11 13 mph 1023.8mb 77f
2:00pm 2 7 mph 1024.5mb 77f
1:00pm 2 7 mph 1025.3mb 77f
12:00pm 2 4 mph 1026.4mb 76f
11:00am 4 7 mph 1027.5mb 76f
10:00am 4 9 mph 1027.8mb 76f
9:00am 7 11 mph 1027.9mb 76f
8:00am 7 11 mph 1028mb 76f
7:00am 7 9 mph 1027.6mb 76f
4:00am 7 13 mph 1027.5mb 76f
3:00am 7 11 mph 1028.3mb 76f
1:00am 4 7 mph 1028mb 76f
12:00am 4 9 mph 1028.2mb 76f
Sun 12/10 11:00pm 4 9 mph 1028.8mb 76f